sensor_id;sensor_type;location;lat;lon;timestamp;temperature;humidity
24144;DHT22;12307;50.828;6.080;2023-11-18T00:01:51;18.00;67.20
24144;DHT22;12307;50.828;6.080;2023-11-18T00:04:17;18.00;67.20
24144;DHT22;12307;50.828;6.080;2023-11-18T00:06:43;18.00;67.20
24144;DHT22;12307;50.828;6.080;2023-11-18T00:09:09;18.00;67.10
24144;DHT22;12307;50.828;6.080;2023-11-18T00:11:35;18.00;67.20
24144;DHT22;12307;50.828;6.080;2023-11-18T00:14:01;18.00;67.20
24144;DHT22;12307;50.828;6.080;2023-11-18T00:16:29;18.00;67.20
24144;DHT22;12307;50.828;6.080;2023-11-18T00:18:55;18.00;67.20
24144;DHT22;12307;50.828;6.080;2023-11-18T00:21:21;18.00;67.20
24144;DHT22;12307;50.828;6.080;2023-11-18T00:23:47;18.00;67.20
24144;DHT22;12307;50.828;6.080;2023-11-18T00:26:13;18.00;67.20
24144;DHT22;12307;50.828;6.080;2023-11-18T00:28:39;17.90;67.10
24144;DHT22;12307;50.828;6.080;2023-11-18T00:31:05;18.00;67.20
24144;DHT22;12307;50.828;6.080;2023-11-18T00:33:33;17.90;67.10
24144;DHT22;12307;50.828;6.080;2023-11-18T00:35:58;17.90;67.10
24144;DHT22;12307;50.828;6.080;2023-11-18T00:38:25;17.90;67.10
24144;DHT22;12307;50.828;6.080;2023-11-18T00:40:51;17.90;67.10
24144;DHT22;12307;50.828;6.080;2023-11-18T00:43:17;18.00;67.20
24144;DHT22;12307;50.828;6.080;2023-11-18T00:45:42;17.90;67.10
24144;DHT22;12307;50.828;6.080;2023-11-18T00:48:09;18.00;67.20
24144;DHT22;12307;50.828;6.080;2023-11-18T00:50:36;18.00;67.20
24144;DHT22;12307;50.828;6.080;2023-11-18T00:53:02;17.90;67.10
24144;DHT22;12307;50.828;6.080;2023-11-18T00:55:27;17.90;67.10
24144;DHT22;12307;50.828;6.080;2023-11-18T00:57:53;17.90;67.20
24144;DHT22;12307;50.828;6.080;2023-11-18T01:00:19;17.90;67.10
24144;DHT22;12307;50.828;6.080;2023-11-18T01:02:47;17.90;67.10
24144;DHT22;12307;50.828;6.080;2023-11-18T01:05:15;17.90;67.10
24144;DHT22;12307;50.828;6.080;2023-11-18T01:07:42;17.90;67.10
24144;DHT22;12307;50.828;6.080;2023-11-18T01:10:09;17.90;67.10
24144;DHT22;12307;50.828;6.080;2023-11-18T01:12:35;17.90;67.10
24144;DHT22;12307;50.828;6.080;2023-11-18T01:15:01;17.90;67.10
24144;DHT22;12307;50.828;6.080;2023-11-18T01:17:28;17.90;67.10
24144;DHT22;12307;50.828;6.080;2023-11-18T01:19:54;17.90;67.10
24144;DHT22;12307;50.828;6.080;2023-11-18T01:22:20;17.90;67.10
24144;DHT22;12307;50.828;6.080;2023-11-18T01:24:48;17.90;67.10
24144;DHT22;12307;50.828;6.080;2023-11-18T01:27:14;17.90;67.10
24144;DHT22;12307;50.828;6.080;2023-11-18T01:29:39;17.90;67.10
24144;DHT22;12307;50.828;6.080;2023-11-18T01:32:05;17.90;67.10
24144;DHT22;12307;50.828;6.080;2023-11-18T01:34:35;17.90;67.10
24144;DHT22;12307;50.828;6.080;2023-11-18T01:37:03;17.90;67.10
24144;DHT22;12307;50.828;6.080;2023-11-18T01:39:32;17.90;67.10
24144;DHT22;12307;50.828;6.080;2023-11-18T01:42:00;17.90;67.10
24144;DHT22;12307;50.828;6.080;2023-11-18T01:44:25;17.90;67.10
24144;DHT22;12307;50.828;6.080;2023-11-18T01:46:53;17.90;67.10
24144;DHT22;12307;50.828;6.080;2023-11-18T01:49:19;17.90;67.20
24144;DHT22;12307;50.828;6.080;2023-11-18T01:51:46;17.90;67.10
24144;DHT22;12307;50.828;6.080;2023-11-18T01:54:13;17.90;67.20
24144;DHT22;12307;50.828;6.080;2023-11-18T01:56:46;17.90;67.20
24144;DHT22;12307;50.828;6.080;2023-11-18T01:59:14;17.80;67.10
24144;DHT22;12307;50.828;6.080;2023-11-18T02:01:46;17.80;67.10
24144;DHT22;12307;50.828;6.080;2023-11-18T02:04:12;17.80;67.10
24144;DHT22;12307;50.828;6.080;2023-11-18T02:06:38;17.90;67.20
24144;DHT22;12307;50.828;6.080;2023-11-18T02:09:04;17.80;67.10
24144;DHT22;12307;50.828;6.080;2023-11-18T02:11:32;17.90;67.20
24144;DHT22;12307;50.828;6.080;2023-11-18T02:14:01;17.80;67.10
24144;DHT22;12307;50.828;6.080;2023-11-18T02:16:31;17.80;67.10
24144;DHT22;12307;50.828;6.080;2023-11-18T02:18:58;17.90;67.20
24144;DHT22;12307;50.828;6.080;2023-11-18T02:21:24;17.90;67.20
24144;DHT22;12307;50.828;6.080;2023-11-18T02:23:50;17.80;67.10
24144;DHT22;12307;50.828;6.080;2023-11-18T02:26:22;17.90;67.20
24144;DHT22;12307;50.828;6.080;2023-11-18T02:28:47;17.90;67.30
24144;DHT22;12307;50.828;6.080;2023-11-18T02:31:26;17.80;67.10
24144;DHT22;12307;50.828;6.080;2023-11-18T02:33:58;17.90;67.20
24144;DHT22;12307;50.828;6.080;2023-11-18T02:36:29;17.90;67.20
24144;DHT22;12307;50.828;6.080;2023-11-18T02:39:04;17.90;67.10
24144;DHT22;12307;50.828;6.080;2023-11-18T02:41:35;17.80;67.10
24144;DHT22;12307;50.828;6.080;2023-11-18T02:44:01;17.90;67.20
24144;DHT22;12307;50.828;6.080;2023-11-18T02:46:27;17.90;67.10
24144;DHT22;12307;50.828;6.080;2023-11-18T02:48:53;17.80;67.10
24144;DHT22;12307;50.828;6.080;2023-11-18T02:51:22;17.90;67.20
24144;DHT22;12307;50.828;6.080;2023-11-18T02:53:48;17.80;67.10
24144;DHT22;12307;50.828;6.080;2023-11-18T02:56:13;17.80;67.10
24144;DHT22;12307;50.828;6.080;2023-11-18T02:58:40;17.80;67.00
24144;DHT22;12307;50.828;6.080;2023-11-18T03:01:06;17.80;67.00
24144;DHT22;12307;50.828;6.080;2023-11-18T03:03:32;17.80;67.00
24144;DHT22;12307;50.828;6.080;2023-11-18T03:05:57;17.90;67.10
24144;DHT22;12307;50.828;6.080;2023-11-18T03:08:25;17.90;67.10
24144;DHT22;12307;50.828;6.080;2023-11-18T03:10:53;17.80;67.00
24144;DHT22;12307;50.828;6.080;2023-11-18T03:13:19;17.90;67.10
24144;DHT22;12307;50.828;6.080;2023-11-18T03:15:46;17.90;67.10
24144;DHT22;12307;50.828;6.080;2023-11-18T03:18:14;17.90;67.10
24144;DHT22;12307;50.828;6.080;2023-11-18T03:20:40;17.80;67.00
24144;DHT22;12307;50.828;6.080;2023-11-18T03:23:06;17.80;67.00
24144;DHT22;12307;50.828;6.080;2023-11-18T03:25:34;17.80;67.00
24144;DHT22;12307;50.828;6.080;2023-11-18T03:28:00;17.80;67.00
24144;DHT22;12307;50.828;6.080;2023-11-18T03:30:26;17.80;67.00
24144;DHT22;12307;50.828;6.080;2023-11-18T03:32:55;17.80;67.10
24144;DHT22;12307;50.828;6.080;2023-11-18T03:35:21;17.80;67.10
24144;DHT22;12307;50.828;6.080;2023-11-18T03:37:48;17.80;67.10
24144;DHT22;12307;50.828;6.080;2023-11-18T03:40:14;17.80;67.10
24144;DHT22;12307;50.828;6.080;2023-11-18T03:42:41;17.80;67.00
24144;DHT22;12307;50.828;6.080;2023-11-18T03:45:08;17.80;67.00
24144;DHT22;12307;50.828;6.080;2023-11-18T03:47:35;17.80;67.10
24144;DHT22;12307;50.828;6.080;2023-11-18T03:50:02;17.80;67.00
24144;DHT22;12307;50.828;6.080;2023-11-18T03:52:27;17.80;67.10
24144;DHT22;12307;50.828;6.080;2023-11-18T03:54:54;17.80;67.80
24144;DHT22;12307;50.828;6.080;2023-11-18T03:57:23;17.80;67.10
24144;DHT22;12307;50.828;6.080;2023-11-18T03:59:53;17.80;67.00
24144;DHT22;12307;50.828;6.080;2023-11-18T04:02:19;17.80;67.00
24144;DHT22;12307;50.828;6.080;2023-11-18T04:04:45;17.80;67.00
24144;DHT22;12307;50.828;6.080;2023-11-18T04:07:12;17.80;67.00
24144;DHT22;12307;50.828;6.080;2023-11-18T04:09:38;17.80;67.10
24144;DHT22;12307;50.828;6.080;2023-11-18T04:12:06;17.80;67.10
24144;DHT22;12307;50.828;6.080;2023-11-18T04:14:33;17.80;67.00
24144;DHT22;12307;50.828;6.080;2023-11-18T04:16:59;17.80;67.80
24144;DHT22;12307;50.828;6.080;2023-11-18T04:19:25;17.80;67.00
24144;DHT22;12307;50.828;6.080;2023-11-18T04:21:51;17.80;67.00
24144;DHT22;12307;50.828;6.080;2023-11-18T04:24:18;17.80;67.00
24144;DHT22;12307;50.828;6.080;2023-11-18T04:26:44;17.80;67.00
24144;DHT22;12307;50.828;6.080;2023-11-18T04:29:09;17.80;67.00
24144;DHT22;12307;50.828;6.080;2023-11-18T04:31:35;17.80;67.00
24144;DHT22;12307;50.828;6.080;2023-11-18T04:34:02;17.80;67.00
24144;DHT22;12307;50.828;6.080;2023-11-18T04:36:29;17.80;67.70
24144;DHT22;12307;50.828;6.080;2023-11-18T04:38:56;17.80;66.90
24144;DHT22;12307;50.828;6.080;2023-11-18T04:41:23;17.70;66.80
24144;DHT22;12307;50.828;6.080;2023-11-18T04:43:49;17.80;66.90
24144;DHT22;12307;50.828;6.080;2023-11-18T04:46:15;17.70;66.80
24144;DHT22;12307;50.828;6.080;2023-11-18T04:48:42;17.80;66.90
24144;DHT22;12307;50.828;6.080;2023-11-18T04:51:08;17.70;66.80
24144;DHT22;12307;50.828;6.080;2023-11-18T04:53:34;17.80;66.90
24144;DHT22;12307;50.828;6.080;2023-11-18T04:55:59;17.80;66.90
24144;DHT22;12307;50.828;6.080;2023-11-18T04:58:26;17.80;66.90
24144;DHT22;12307;50.828;6.080;2023-11-18T05:00:52;17.70;66.80
24144;DHT22;12307;50.828;6.080;2023-11-18T05:03:18;17.80;66.90
24144;DHT22;12307;50.828;6.080;2023-11-18T05:05:43;17.80;66.90
24144;DHT22;12307;50.828;6.080;2023-11-18T05:08:18;17.80;66.90
24144;DHT22;12307;50.828;6.080;2023-11-18T05:10:46;17.70;66.80
24144;DHT22;12307;50.828;6.080;2023-11-18T05:13:12;17.70;66.80
24144;DHT22;12307;50.828;6.080;2023-11-18T05:15:42;17.80;66.90
24144;DHT22;12307;50.828;6.080;2023-11-18T05:18:10;17.70;66.80
24144;DHT22;12307;50.828;6.080;2023-11-18T05:20:39;17.70;66.80
24144;DHT22;12307;50.828;6.080;2023-11-18T05:23:05;17.80;66.80
24144;DHT22;12307;50.828;6.080;2023-11-18T05:25:30;17.80;66.80
24144;DHT22;12307;50.828;6.080;2023-11-18T05:27:58;17.80;66.80
24144;DHT22;12307;50.828;6.080;2023-11-18T05:30:24;17.70;66.80
24144;DHT22;12307;50.828;6.080;2023-11-18T05:32:52;17.80;66.80
24144;DHT22;12307;50.828;6.080;2023-11-18T05:35:18;17.80;66.80
24144;DHT22;12307;50.828;6.080;2023-11-18T05:37:43;17.80;66.80
24144;DHT22;12307;50.828;6.080;2023-11-18T05:40:10;17.70;66.70
24144;DHT22;12307;50.828;6.080;2023-11-18T05:42:40;17.80;66.80
24144;DHT22;12307;50.828;6.080;2023-11-18T05:45:07;17.80;66.70
24144;DHT22;12307;50.828;6.080;2023-11-18T05:47:36;17.70;66.70
24144;DHT22;12307;50.828;6.080;2023-11-18T05:50:04;17.80;66.70
24144;DHT22;12307;50.828;6.080;2023-11-18T05:52:31;17.80;66.70
24144;DHT22;12307;50.828;6.080;2023-11-18T05:54:56;17.80;66.70
24144;DHT22;12307;50.828;6.080;2023-11-18T05:57:22;17.80;66.70
24144;DHT22;12307;50.828;6.080;2023-11-18T05:59:48;17.80;66.70
24144;DHT22;12307;50.828;6.080;2023-11-18T06:02:14;17.80;66.60
24144;DHT22;12307;50.828;6.080;2023-11-18T06:04:44;17.80;66.60
24144;DHT22;12307;50.828;6.080;2023-11-18T06:07:11;17.80;66.60
24144;DHT22;12307;50.828;6.080;2023-11-18T06:09:39;17.80;66.60
24144;DHT22;12307;50.828;6.080;2023-11-18T06:12:05;17.80;66.50
24144;DHT22;12307;50.828;6.080;2023-11-18T06:14:34;17.80;66.50
24144;DHT22;12307;50.828;6.080;2023-11-18T06:17:00;17.80;66.50
24144;DHT22;12307;50.828;6.080;2023-11-18T06:19:25;17.70;66.50
24144;DHT22;12307;50.828;6.080;2023-11-18T06:21:51;17.70;66.50
24144;DHT22;12307;50.828;6.080;2023-11-18T06:24:18;17.80;66.50
24144;DHT22;12307;50.828;6.080;2023-11-18T06:26:44;17.80;66.50
24144;DHT22;12307;50.828;6.080;2023-11-18T06:29:10;17.80;66.50
24144;DHT22;12307;50.828;6.080;2023-11-18T06:31:36;17.80;66.50
24144;DHT22;12307;50.828;6.080;2023-11-18T06:34:01;17.80;66.50
24144;DHT22;12307;50.828;6.080;2023-11-18T06:36:29;17.80;66.50
24144;DHT22;12307;50.828;6.080;2023-11-18T06:38:56;17.80;66.50
24144;DHT22;12307;50.828;6.080;2023-11-18T06:41:23;17.80;66.40
24144;DHT22;12307;50.828;6.080;2023-11-18T06:43:51;17.80;66.40
24144;DHT22;12307;50.828;6.080;2023-11-18T06:46:18;17.80;66.40
24144;DHT22;12307;50.828;6.080;2023-11-18T06:48:46;17.80;66.40
24144;DHT22;12307;50.828;6.080;2023-11-18T06:51:13;17.80;66.40
24144;DHT22;12307;50.828;6.080;2023-11-18T06:53:40;17.80;66.40
24144;DHT22;12307;50.828;6.080;2023-11-18T06:56:07;17.80;66.40
24144;DHT22;12307;50.828;6.080;2023-11-18T06:58:37;17.80;66.40
24144;DHT22;12307;50.828;6.080;2023-11-18T07:01:03;17.80;66.40
24144;DHT22;12307;50.828;6.080;2023-11-18T07:03:31;17.80;66.40
24144;DHT22;12307;50.828;6.080;2023-11-18T07:05:57;17.80;66.40
24144;DHT22;12307;50.828;6.080;2023-11-18T07:08:23;17.80;66.30
24144;DHT22;12307;50.828;6.080;2023-11-18T07:10:50;17.80;66.30
24144;DHT22;12307;50.828;6.080;2023-11-18T07:13:15;17.80;66.30
24144;DHT22;12307;50.828;6.080;2023-11-18T07:15:43;17.80;66.30
24144;DHT22;12307;50.828;6.080;2023-11-18T07:18:10;17.80;66.30
24144;DHT22;12307;50.828;6.080;2023-11-18T07:20:35;17.80;66.30
24144;DHT22;12307;50.828;6.080;2023-11-18T07:23:01;17.80;66.30
24144;DHT22;12307;50.828;6.080;2023-11-18T07:25:27;17.80;66.30
24144;DHT22;12307;50.828;6.080;2023-11-18T07:27:53;17.80;66.30
24144;DHT22;12307;50.828;6.080;2023-11-18T07:30:19;17.80;66.20
24144;DHT22;12307;50.828;6.080;2023-11-18T07:32:46;17.80;66.20
24144;DHT22;12307;50.828;6.080;2023-11-18T07:35:12;17.80;66.20
24144;DHT22;12307;50.828;6.080;2023-11-18T07:37:38;17.80;66.20
24144;DHT22;12307;50.828;6.080;2023-11-18T07:40:05;17.80;66.10
24144;DHT22;12307;50.828;6.080;2023-11-18T07:42:31;17.80;66.20
24144;DHT22;12307;50.828;6.080;2023-11-18T07:45:00;17.80;66.10
24144;DHT22;12307;50.828;6.080;2023-11-18T07:47:29;17.80;66.10
24144;DHT22;12307;50.828;6.080;2023-11-18T07:49:58;17.80;66.10
24144;DHT22;12307;50.828;6.080;2023-11-18T07:52:24;17.80;66.10
24144;DHT22;12307;50.828;6.080;2023-11-18T07:54:50;17.90;66.10
24144;DHT22;12307;50.828;6.080;2023-11-18T07:57:15;17.90;66.10
24144;DHT22;12307;50.828;6.080;2023-11-18T07:59:41;17.80;66.10
24144;DHT22;12307;50.828;6.080;2023-11-18T08:02:07;17.90;66.10
24144;DHT22;12307;50.828;6.080;2023-11-18T08:04:34;17.90;66.10
24144;DHT22;12307;50.828;6.080;2023-11-18T08:07:02;17.90;66.10
24144;DHT22;12307;50.828;6.080;2023-11-18T08:09:29;17.90;66.10
24144;DHT22;12307;50.828;6.080;2023-11-18T08:11:57;17.90;66.10
24144;DHT22;12307;50.828;6.080;2023-11-18T08:14:22;17.80;66.00
24144;DHT22;12307;50.828;6.080;2023-11-18T08:16:48;17.90;66.00
24144;DHT22;12307;50.828;6.080;2023-11-18T08:19:15;17.90;66.00
24144;DHT22;12307;50.828;6.080;2023-11-18T08:21:41;17.90;66.00
24144;DHT22;12307;50.828;6.080;2023-11-18T08:24:08;17.90;66.00
24144;DHT22;12307;50.828;6.080;2023-11-18T08:26:34;17.90;66.00
24144;DHT22;12307;50.828;6.080;2023-11-18T08:29:00;17.90;66.00
24144;DHT22;12307;50.828;6.080;2023-11-18T08:31:26;17.90;66.00
24144;DHT22;12307;50.828;6.080;2023-11-18T08:33:52;17.90;66.00
24144;DHT22;12307;50.828;6.080;2023-11-18T08:36:19;17.90;66.00
24144;DHT22;12307;50.828;6.080;2023-11-18T08:38:46;17.90;65.90
24144;DHT22;12307;50.828;6.080;2023-11-18T08:41:13;17.90;65.90
24144;DHT22;12307;50.828;6.080;2023-11-18T08:43:39;17.90;66.00
24144;DHT22;12307;50.828;6.080;2023-11-18T08:46:08;17.90;65.90
24144;DHT22;12307;50.828;6.080;2023-11-18T08:48:34;17.90;65.80
24144;DHT22;12307;50.828;6.080;2023-11-18T08:51:00;17.90;65.80
24144;DHT22;12307;50.828;6.080;2023-11-18T08:53:27;17.90;65.80
24144;DHT22;12307;50.828;6.080;2023-11-18T08:55:53;17.90;65.80
24144;DHT22;12307;50.828;6.080;2023-11-18T08:58:23;17.90;65.80
24144;DHT22;12307;50.828;6.080;2023-11-18T09:00:59;17.90;65.80
24144;DHT22;12307;50.828;6.080;2023-11-18T09:03:31;17.90;65.70
24144;DHT22;12307;50.828;6.080;2023-11-18T09:06:01;17.90;65.80
24144;DHT22;12307;50.828;6.080;2023-11-18T09:08:33;17.90;65.70
24144;DHT22;12307;50.828;6.080;2023-11-18T09:11:05;17.90;65.70
24144;DHT22;12307;50.828;6.080;2023-11-18T09:13:33;17.90;65.70
24144;DHT22;12307;50.828;6.080;2023-11-18T09:16:00;17.90;65.70
24144;DHT22;12307;50.828;6.080;2023-11-18T09:18:26;17.90;65.70
24144;DHT22;12307;50.828;6.080;2023-11-18T09:20:56;17.90;65.70
24144;DHT22;12307;50.828;6.080;2023-11-18T09:23:25;17.90;65.70
24144;DHT22;12307;50.828;6.080;2023-11-18T09:25:53;17.90;65.70
24144;DHT22;12307;50.828;6.080;2023-11-18T09:28:19;17.90;65.60
24144;DHT22;12307;50.828;6.080;2023-11-18T09:30:47;17.90;65.60
24144;DHT22;12307;50.828;6.080;2023-11-18T09:33:18;17.90;65.60
24144;DHT22;12307;50.828;6.080;2023-11-18T09:35:58;18.00;65.60
24144;DHT22;12307;50.828;6.080;2023-11-18T09:38:25;17.90;65.60
24144;DHT22;12307;50.828;6.080;2023-11-18T09:40:53;17.90;65.50
24144;DHT22;12307;50.828;6.080;2023-11-18T09:43:19;17.90;65.50
24144;DHT22;12307;50.828;6.080;2023-11-18T09:45:50;17.90;65.60
24144;DHT22;12307;50.828;6.080;2023-11-18T09:48:18;18.00;66.50
24144;DHT22;12307;50.828;6.080;2023-11-18T09:50:51;18.00;65.60
24144;DHT22;12307;50.828;6.080;2023-11-18T09:53:17;18.00;65.60
24144;DHT22;12307;50.828;6.080;2023-11-18T09:55:49;18.00;65.60
24144;DHT22;12307;50.828;6.080;2023-11-18T09:58:16;18.00;65.70
24144;DHT22;12307;50.828;6.080;2023-11-18T10:00:48;18.00;65.70
24144;DHT22;12307;50.828;6.080;2023-11-18T10:03:16;18.00;65.70
24144;DHT22;12307;50.828;6.080;2023-11-18T10:05:42;18.00;65.70
24144;DHT22;12307;50.828;6.080;2023-11-18T10:08:08;18.00;65.70
24144;DHT22;12307;50.828;6.080;2023-11-18T10:10:35;18.00;65.70
24144;DHT22;12307;50.828;6.080;2023-11-18T10:13:03;18.00;65.70
24144;DHT22;12307;50.828;6.080;2023-11-18T10:15:48;18.00;65.70
24144;DHT22;12307;50.828;6.080;2023-11-18T10:18:18;18.00;65.70
24144;DHT22;12307;50.828;6.080;2023-11-18T10:20:50;18.00;65.70
24144;DHT22;12307;50.828;6.080;2023-11-18T10:23:21;18.00;65.80
24144;DHT22;12307;50.828;6.080;2023-11-18T10:25:47;18.00;65.80
24144;DHT22;12307;50.828;6.080;2023-11-18T10:28:22;18.00;65.80
24144;DHT22;12307;50.828;6.080;2023-11-18T10:30:50;18.00;65.80
24144;DHT22;12307;50.828;6.080;2023-11-18T10:33:17;18.00;65.80
24144;DHT22;12307;50.828;6.080;2023-11-18T10:35:49;18.00;66.60
24144;DHT22;12307;50.828;6.080;2023-11-18T10:38:18;18.00;65.80
24144;DHT22;12307;50.828;6.080;2023-11-18T10:40:44;18.00;65.80
24144;DHT22;12307;50.828;6.080;2023-11-18T10:43:10;18.00;65.90
24144;DHT22;12307;50.828;6.080;2023-11-18T10:45:36;18.00;65.80
24144;DHT22;12307;50.828;6.080;2023-11-18T10:48:06;18.00;65.80
24144;DHT22;12307;50.828;6.080;2023-11-18T10:50:32;18.00;65.80
24144;DHT22;12307;50.828;6.080;2023-11-18T10:52:58;18.00;65.80
24144;DHT22;12307;50.828;6.080;2023-11-18T10:55:34;18.00;65.80
24144;DHT22;12307;50.828;6.080;2023-11-18T10:58:01;18.00;65.80
24144;DHT22;12307;50.828;6.080;2023-11-18T11:00:27;18.00;65.80
24144;DHT22;12307;50.828;6.080;2023-11-18T11:02:59;18.00;66.60
24144;DHT22;12307;50.828;6.080;2023-11-18T11:05:29;18.00;65.80
24144;DHT22;12307;50.828;6.080;2023-11-18T11:07:58;18.00;65.70
24144;DHT22;12307;50.828;6.080;2023-11-18T11:10:25;18.00;65.70
24144;DHT22;12307;50.828;6.080;2023-11-18T11:12:55;18.00;65.80
24144;DHT22;12307;50.828;6.080;2023-11-18T11:15:23;18.00;65.70
24144;DHT22;12307;50.828;6.080;2023-11-18T11:17:52;18.00;65.70
24144;DHT22;12307;50.828;6.080;2023-11-18T11:20:21;18.00;65.70
24144;DHT22;12307;50.828;6.080;2023-11-18T11:23:03;18.00;65.70
24144;DHT22;12307;50.828;6.080;2023-11-18T11:25:41;18.00;65.70
24144;DHT22;12307;50.828;6.080;2023-11-18T11:28:11;18.00;65.70
24144;DHT22;12307;50.828;6.080;2023-11-18T11:30:44;18.00;65.80
24144;DHT22;12307;50.828;6.080;2023-11-18T11:33:14;18.00;65.70
24144;DHT22;12307;50.828;6.080;2023-11-18T11:35:48;18.00;65.60
24144;DHT22;12307;50.828;6.080;2023-11-18T11:38:19;18.00;65.60
24144;DHT22;12307;50.828;6.080;2023-11-18T11:40:46;18.00;65.60
24144;DHT22;12307;50.828;6.080;2023-11-18T11:43:15;18.00;65.60
24144;DHT22;12307;50.828;6.080;2023-11-18T11:45:47;18.00;65.60
24144;DHT22;12307;50.828;6.080;2023-11-18T11:48:13;18.10;65.70
24144;DHT22;12307;50.828;6.080;2023-11-18T11:50:54;18.10;65.70
24144;DHT22;12307;50.828;6.080;2023-11-18T11:53:26;18.10;65.70
24144;DHT22;12307;50.828;6.080;2023-11-18T11:55:55;18.10;65.70
24144;DHT22;12307;50.828;6.080;2023-11-18T11:58:33;18.10;65.70
24144;DHT22;12307;50.828;6.080;2023-11-18T12:01:00;18.10;65.60
24144;DHT22;12307;50.828;6.080;2023-11-18T12:03:27;18.10;65.60
24144;DHT22;12307;50.828;6.080;2023-11-18T12:06:01;18.10;65.60
24144;DHT22;12307;50.828;6.080;2023-11-18T12:08:35;18.10;65.60
24144;DHT22;12307;50.828;6.080;2023-11-18T12:11:02;18.10;66.30
24144;DHT22;12307;50.828;6.080;2023-11-18T12:13:33;18.10;65.60
24144;DHT22;12307;50.828;6.080;2023-11-18T12:16:05;18.10;65.60
24144;DHT22;12307;50.828;6.080;2023-11-18T12:18:35;18.10;65.60
24144;DHT22;12307;50.828;6.080;2023-11-18T12:21:03;18.10;65.60
24144;DHT22;12307;50.828;6.080;2023-11-18T12:23:30;18.10;65.60
24144;DHT22;12307;50.828;6.080;2023-11-18T12:25:58;18.10;65.50
24144;DHT22;12307;50.828;6.080;2023-11-18T12:28:28;18.10;65.60
24144;DHT22;12307;50.828;6.080;2023-11-18T12:31:00;18.10;65.50
24144;DHT22;12307;50.828;6.080;2023-11-18T12:34:00;18.00;65.50
24144;DHT22;12307;50.828;6.080;2023-11-18T12:36:56;18.10;65.60
24144;DHT22;12307;50.828;6.080;2023-11-18T12:39:55;18.10;65.60
24144;DHT22;12307;50.828;6.080;2023-11-18T12:43:00;18.10;65.60
24144;DHT22;12307;50.828;6.080;2023-11-18T12:46:10;18.10;65.60
24144;DHT22;12307;50.828;6.080;2023-11-18T12:48:43;18.00;65.60
24144;DHT22;12307;50.828;6.080;2023-11-18T12:51:10;18.00;65.60
24144;DHT22;12307;50.828;6.080;2023-11-18T12:53:46;18.00;65.60
24144;DHT22;12307;50.828;6.080;2023-11-18T12:56:12;18.00;65.60
24144;DHT22;12307;50.828;6.080;2023-11-18T12:58:40;18.00;65.60
24144;DHT22;12307;50.828;6.080;2023-11-18T13:01:06;18.00;65.60
24144;DHT22;12307;50.828;6.080;2023-11-18T13:03:32;18.00;65.60
24144;DHT22;12307;50.828;6.080;2023-11-18T13:06:00;18.00;66.10
24144;DHT22;12307;50.828;6.080;2023-11-18T13:08:25;18.00;65.60
24144;DHT22;12307;50.828;6.080;2023-11-18T13:10:52;18.00;65.60
24144;DHT22;12307;50.828;6.080;2023-11-18T13:13:18;18.00;65.60
24144;DHT22;12307;50.828;6.080;2023-11-18T13:15:46;18.00;65.70
24144;DHT22;12307;50.828;6.080;2023-11-18T13:18:12;18.00;65.70
24144;DHT22;12307;50.828;6.080;2023-11-18T13:20:38;18.00;65.70
24144;DHT22;12307;50.828;6.080;2023-11-18T13:23:08;18.00;65.70
24144;DHT22;12307;50.828;6.080;2023-11-18T13:25:34;18.00;65.60
24144;DHT22;12307;50.828;6.080;2023-11-18T13:28:01;18.00;65.70
24144;DHT22;12307;50.828;6.080;2023-11-18T13:30:27;18.00;65.70
24144;DHT22;12307;50.828;6.080;2023-11-18T13:32:55;18.00;65.70
24144;DHT22;12307;50.828;6.080;2023-11-18T13:35:22;18.00;65.70
24144;DHT22;12307;50.828;6.080;2023-11-18T13:37:49;18.00;65.70
24144;DHT22;12307;50.828;6.080;2023-11-18T13:40:15;18.00;65.70
24144;DHT22;12307;50.828;6.080;2023-11-18T13:42:43;18.00;65.70
24144;DHT22;12307;50.828;6.080;2023-11-18T13:45:12;18.00;65.70
24144;DHT22;12307;50.828;6.080;2023-11-18T13:47:41;18.00;65.70
24144;DHT22;12307;50.828;6.080;2023-11-18T13:50:16;18.00;65.70
24144;DHT22;12307;50.828;6.080;2023-11-18T13:52:42;18.00;65.70
24144;DHT22;12307;50.828;6.080;2023-11-18T13:55:12;18.00;65.70
24144;DHT22;12307;50.828;6.080;2023-11-18T13:57:42;18.00;65.70
24144;DHT22;12307;50.828;6.080;2023-11-18T14:00:09;18.00;65.70
24144;DHT22;12307;50.828;6.080;2023-11-18T14:02:40;18.00;65.70
24144;DHT22;12307;50.828;6.080;2023-11-18T14:05:16;18.00;65.70
24144;DHT22;12307;50.828;6.080;2023-11-18T14:07:48;18.00;65.60
24144;DHT22;12307;50.828;6.080;2023-11-18T14:10:14;18.00;65.70
24144;DHT22;12307;50.828;6.080;2023-11-18T14:12:39;18.00;65.70
24144;DHT22;12307;50.828;6.080;2023-11-18T14:15:06;18.00;65.70
24144;DHT22;12307;50.828;6.080;2023-11-18T14:17:35;18.00;65.70
24144;DHT22;12307;50.828;6.080;2023-11-18T14:20:01;18.00;65.70
24144;DHT22;12307;50.828;6.080;2023-11-18T14:22:28;18.00;65.70
24144;DHT22;12307;50.828;6.080;2023-11-18T14:24:55;18.00;65.70
24144;DHT22;12307;50.828;6.080;2023-11-18T14:27:20;18.00;65.70
24144;DHT22;12307;50.828;6.080;2023-11-18T14:29:46;18.00;65.70
24144;DHT22;12307;50.828;6.080;2023-11-18T14:32:12;18.00;65.70
24144;DHT22;12307;50.828;6.080;2023-11-18T14:34:39;18.00;65.80
24144;DHT22;12307;50.828;6.080;2023-11-18T14:37:07;18.00;65.90
24144;DHT22;12307;50.828;6.080;2023-11-18T14:39:34;18.00;65.90
24144;DHT22;12307;50.828;6.080;2023-11-18T14:42:02;17.90;65.80
24144;DHT22;12307;50.828;6.080;2023-11-18T14:44:29;17.90;65.80
24144;DHT22;12307;50.828;6.080;2023-11-18T14:46:55;17.90;65.90
24144;DHT22;12307;50.828;6.080;2023-11-18T14:49:21;17.90;65.90
24144;DHT22;12307;50.828;6.080;2023-11-18T14:51:48;17.90;65.90
24144;DHT22;12307;50.828;6.080;2023-11-18T14:54:13;17.90;66.00
24144;DHT22;12307;50.828;6.080;2023-11-18T14:56:40;17.90;66.00
24144;DHT22;12307;50.828;6.080;2023-11-18T14:59:06;17.90;66.00
24144;DHT22;12307;50.828;6.080;2023-11-18T15:01:35;17.90;66.00
24144;DHT22;12307;50.828;6.080;2023-11-18T15:04:01;17.90;66.10
24144;DHT22;12307;50.828;6.080;2023-11-18T15:06:31;17.90;66.10
24144;DHT22;12307;50.828;6.080;2023-11-18T15:08:56;17.90;66.10
24144;DHT22;12307;50.828;6.080;2023-11-18T15:11:22;17.90;66.10
24144;DHT22;12307;50.828;6.080;2023-11-18T15:13:50;17.90;66.10
24144;DHT22;12307;50.828;6.080;2023-11-18T15:16:18;17.90;66.10
24144;DHT22;12307;50.828;6.080;2023-11-18T15:18:44;17.90;66.20
24144;DHT22;12307;50.828;6.080;2023-11-18T15:21:12;17.90;66.20
24144;DHT22;12307;50.828;6.080;2023-11-18T15:23:40;17.90;66.20
24144;DHT22;12307;50.828;6.080;2023-11-18T15:26:07;17.90;66.20
24144;DHT22;12307;50.828;6.080;2023-11-18T15:28:34;17.90;66.30
24144;DHT22;12307;50.828;6.080;2023-11-18T15:31:01;17.90;66.30
24144;DHT22;12307;50.828;6.080;2023-11-18T15:33:29;17.90;66.30
24144;DHT22;12307;50.828;6.080;2023-11-18T15:35:55;17.90;66.30